Time;durP1;ratioP1;P1;durP2;ratioP2;P2;SDS_P1;SDS_P2;PMS_P1;PMS_P2;Temp;Humidity;BMP_temperature;BMP_pressure;BME280_temperature;BME280_humidity;BME280_pressure;Samples;Min_cycle;Max_cycle;Signal;HPM_P1;HPM_P2
2022/08/28 00:02:10;;;;;;;;;;;;;;;17.46;84.63;95121.31;5156714;27;1082;-49
2022/08/28 00:04:36;;;;;;;;;;;;;;;17.48;84.44;95119.25;5156432;27;1913;-49
2022/08/28 00:07:02;;;;;;;;;;;;;;;17.35;84.38;95126.28;5156298;27;1088;-49
2022/08/28 00:09:28;;;;;;;;;;;;;;;17.18;84.68;95117.69;5156305;27;968;-49
2022/08/28 00:11:55;;;;;;;;;;;;;;;17.04;85.26;95120.56;5156433;27;1184;-49
2022/08/28 00:14:22;;;;;;;;;;;;;;;16.94;85.88;95116.38;5156049;27;968;-49
2022/08/28 00:16:48;;;;;;;;;;;;;;;16.88;86.26;95119.88;5156166;27;1072;-49
2022/08/28 00:19:15;;;;;;;;;;;;;;;16.96;85.91;95114.31;5156159;27;972;-49
2022/08/28 00:21:42;;;;;;;;;;;;;;;17.13;85.48;95120.19;5156298;27;1047;-49
2022/08/28 00:24:07;;;;;;;;;;;;;;;17.17;85.45;95121.44;5155850;27;1948;-49
2022/08/28 00:29:18;;;;;;;;;;;;;;;17.29;84.81;95123.56;5154992;27;1048;-49
2022/08/28 00:31:44;;;;;;;;;;;;;;;17.23;85.21;95130.63;5155923;27;1867;-49
2022/08/28 00:34:10;;;;;;;;;;;;;;;17.28;84.82;95125.44;5155574;27;1107;-49
2022/08/28 00:36:37;;;;;;;;;;;;;;;17.14;84.23;95129.94;5155925;27;904;-49
2022/08/28 00:39:04;;;;;;;;;;;;;;;16.90;85.41;95127.78;5155549;27;1895;-49
2022/08/28 00:41:31;;;;;;;;;;;;;;;16.91;86.11;95130.28;5155740;27;1020;-49
2022/08/28 00:44:12;;;;;;;;;;;;;;;16.91;85.51;95132.16;5150765;27;1913;-49
2022/08/28 00:46:38;;;;;;;;;;;;;;;16.96;85.80;95130.50;5135141;27;1015;-49
2022/08/28 00:49:05;;;;;;;;;;;;;;;16.86;85.02;95129.22;5134869;27;971;-49
2022/08/28 00:54:18;;;;;;;;;;;;;;;16.85;85.31;95135.66;5134605;27;1060;-49
2022/08/28 00:56:45;;;;;;;;;;;;;;;17.01;84.42;95135.28;5134767;27;1039;-49
2022/08/28 00:59:14;;;;;;;;;;;;;;;17.08;84.16;95138.03;5134729;27;1193;-49
2022/08/28 01:01:41;;;;;;;;;;;;;;;17.13;83.56;95135.53;5134824;27;1031;-49
2022/08/28 01:04:07;;;;;;;;;;;;;;;17.10;84.34;95134.09;5134551;27;1910;-50
2022/08/28 01:06:34;;;;;;;;;;;;;;;16.91;84.99;95124.03;5134495;27;1103;-50
2022/08/28 01:09:00;;;;;;;;;;;;;;;16.73;85.58;95133.50;5134514;27;1067;-49
2022/08/28 01:11:27;;;;;;;;;;;;;;;16.57;86.11;95137.34;5134543;27;975;-49
2022/08/28 01:13:57;;;;;;;;;;;;;;;16.51;86.55;95140.00;5134695;27;1032;-49
2022/08/28 01:16:24;;;;;;;;;;;;;;;16.65;86.21;95132.81;5134228;27;1079;-49
2022/08/28 01:18:51;;;;;;;;;;;;;;;16.66;85.93;95134.50;5134516;27;973;-49
2022/08/28 01:21:17;;;;;;;;;;;;;;;16.65;85.93;95136.34;5134214;27;1044;-49
2022/08/28 01:23:43;;;;;;;;;;;;;;;16.62;86.58;95144.84;5134270;27;1917;-49
2022/08/28 01:26:09;;;;;;;;;;;;;;;16.70;85.67;95125.78;5134159;27;1107;-49
2022/08/28 01:28:35;;;;;;;;;;;;;;;16.89;84.63;95120.72;5134513;28;1001;-49
2022/08/28 01:31:01;;;;;;;;;;;;;;;16.83;84.92;95130.44;5134135;28;997;-49
2022/08/28 01:33:27;;;;;;;;;;;;;;;16.69;85.31;95137.59;5134507;28;1008;-49
2022/08/28 01:35:54;;;;;;;;;;;;;;;16.46;86.50;95135.19;5134115;28;1008;-49
2022/08/28 01:38:20;;;;;;;;;;;;;;;16.41;86.63;95137.66;5134189;28;995;-49
2022/08/28 01:40:47;;;;;;;;;;;;;;;16.31;87.04;95135.28;5137506;27;1060;-49
2022/08/28 01:43:15;;;;;;;;;;;;;;;16.31;87.40;95137.16;5138505;27;1910;-49
2022/08/28 01:45:44;;;;;;;;;;;;;;;16.37;86.93;95133.66;5157852;27;1212;-49
2022/08/28 01:48:10;;;;;;;;;;;;;;;16.33;87.47;95130.56;5159140;27;980;-49
2022/08/28 01:50:37;;;;;;;;;;;;;;;16.38;87.04;95125.38;5158907;27;1019;-49
2022/08/28 01:53:04;;;;;;;;;;;;;;;16.55;86.09;95123.22;5159216;27;987;-49
2022/08/28 01:55:31;;;;;;;;;;;;;;;16.71;85.66;95121.22;5159060;27;945;-49
2022/08/28 01:57:57;;;;;;;;;;;;;;;16.57;86.04;95123.84;5158925;27;1071;-49
2022/08/28 02:00:26;;;;;;;;;;;;;;;16.40;87.11;95125.19;5158597;27;1111;-49
2022/08/28 02:02:54;;;;;;;;;;;;;;;16.30;86.69;95130.13;5158842;27;1905;-49
2022/08/28 02:05:22;;;;;;;;;;;;;;;16.27;87.13;95138.59;5158513;27;1045;-49
2022/08/28 02:07:48;;;;;;;;;;;;;;;16.18;87.77;95141.44;5158770;27;1090;-49
2022/08/28 02:10:15;;;;;;;;;;;;;;;16.17;87.94;95133.53;5158510;27;1028;-49
2022/08/28 02:12:42;;;;;;;;;;;;;;;16.33;87.30;95143.19;5158741;27;1019;-49
2022/08/28 02:15:09;;;;;;;;;;;;;;;16.36;87.00;95135.53;5158653;27;1024;-49
2022/08/28 02:17:35;;;;;;;;;;;;;;;16.30;86.88;95128.25;5158557;27;965;-49
2022/08/28 02:20:02;;;;;;;;;;;;;;;16.18;87.29;95127.09;5158459;27;1031;-49
2022/08/28 02:22:28;;;;;;;;;;;;;;;16.18;87.29;95130.66;5158672;27;1040;-49
2022/08/28 02:24:54;;;;;;;;;;;;;;;16.19;86.72;95129.63;5158381;27;1906;-49
2022/08/28 02:27:20;;;;;;;;;;;;;;;16.10;86.96;95138.88;5157919;27;1875;-49
2022/08/28 02:29:46;;;;;;;;;;;;;;;15.97;87.45;95139.63;5158447;27;980;-49
2022/08/28 02:32:12;;;;;;;;;;;;;;;16.11;88.01;95135.16;5158112;27;1051;-49
2022/08/28 02:34:39;;;;;;;;;;;;;;;16.22;87.21;95141.88;5158197;27;952;-49
2022/08/28 02:37:07;;;;;;;;;;;;;;;16.19;86.96;95137.69;5158228;27;1043;-49
2022/08/28 02:39:33;;;;;;;;;;;;;;;16.24;87.06;95139.84;5158584;27;1022;-49
2022/08/28 02:41:59;;;;;;;;;;;;;;;16.11;87.15;95135.16;5157957;27;1071;-49
2022/08/28 02:44:25;;;;;;;;;;;;;;;16.04;87.37;95139.66;5149336;27;1996;-49
2022/08/28 02:46:51;;;;;;;;;;;;;;;16.02;87.65;95135.50;5137161;27;988;-49
2022/08/28 02:49:17;;;;;;;;;;;;;;;16.09;87.31;95139.09;5137132;27;1119;-48
2022/08/28 02:51:44;;;;;;;;;;;;;;;16.00;86.42;95149.19;5136524;27;1118;-49
2022/08/28 02:54:10;;;;;;;;;;;;;;;15.87;87.05;95136.41;5137272;27;957;-49
2022/08/28 02:56:36;;;;;;;;;;;;;;;15.81;87.41;95148.81;5136979;27;1862;-49
2022/08/28 02:59:02;;;;;;;;;;;;;;;15.92;87.16;95138.53;5137147;27;952;-49
2022/08/28 03:01:28;;;;;;;;;;;;;;;15.99;86.60;95131.31;5136853;27;1892;-49
2022/08/28 03:03:54;;;;;;;;;;;;;;;15.94;87.13;95141.88;5136831;27;1942;-49
2022/08/28 03:06:21;;;;;;;;;;;;;;;15.94;87.50;95147.25;5136785;27;1020;-49
2022/08/28 03:08:47;;;;;;;;;;;;;;;15.95;87.60;95143.53;5136962;27;1019;-49
2022/08/28 03:11:13;;;;;;;;;;;;;;;15.84;87.33;95139.50;5136899;27;1031;-49
2022/08/28 03:13:41;;;;;;;;;;;;;;;15.85;87.34;95151.13;5136742;27;1024;-49
2022/08/28 03:16:07;;;;;;;;;;;;;;;15.70;87.61;95143.91;5136720;27;972;-49
2022/08/28 03:18:33;;;;;;;;;;;;;;;15.76;87.78;95148.56;5136392;27;1864;-49
2022/08/28 03:20:59;;;;;;;;;;;;;;;15.84;87.55;95153.00;5136862;27;973;-49
2022/08/28 03:23:26;;;;;;;;;;;;;;;15.95;87.20;95152.47;5136383;27;1909;-49
2022/08/28 03:25:52;;;;;;;;;;;;;;;16.10;86.43;95144.28;5136364;27;1108;-49
2022/08/28 03:28:18;;;;;;;;;;;;;;;16.15;85.99;95149.09;5136381;27;949;-49
2022/08/28 03:30:44;;;;;;;;;;;;;;;15.96;87.03;95156.00;5136469;27;1016;-49
2022/08/28 03:33:10;;;;;;;;;;;;;;;15.79;87.14;95153.56;5136081;27;1048;-49
2022/08/28 03:35:36;;;;;;;;;;;;;;;15.77;87.00;95161.00;5136558;27;1040;-49
2022/08/28 03:38:03;;;;;;;;;;;;;;;15.69;87.85;95166.50;5136236;27;1032;-49
2022/08/28 03:40:29;;;;;;;;;;;;;;;15.66;88.13;95163.34;5136413;27;1003;-49
2022/08/28 03:42:55;;;;;;;;;;;;;;;15.71;87.52;95164.44;5136061;27;1995;-49
2022/08/28 03:45:21;;;;;;;;;;;;;;;15.75;87.52;95170.31;5152630;27;1208;-49
2022/08/28 03:47:47;;;;;;;;;;;;;;;15.66;87.74;95179.53;5156616;27;988;-49
2022/08/28 03:50:13;;;;;;;;;;;;;;;15.54;87.49;95179.19;5156945;27;968;-49
2022/08/28 03:52:39;;;;;;;;;;;;;;;15.38;88.22;95172.16;5156762;27;1049;-49
2022/08/28 03:55:07;;;;;;;;;;;;;;;15.32;88.79;95173.78;5156770;27;1044;-49
2022/08/28 03:57:33;;;;;;;;;;;;;;;15.56;87.93;95167.19;5156585;27;969;-49
2022/08/28 03:59:59;;;;;;;;;;;;;;;15.77;87.31;95174.47;5156536;27;1017;-48
2022/08/28 04:02:25;;;;;;;;;;;;;;;15.75;87.19;95187.31;5155800;27;945;-49
2022/08/28 04:04:51;;;;;;;;;;;;;;;15.61;87.79;95189.03;5155991;27;1992;-49
2022/08/28 04:07:18;;;;;;;;;;;;;;;15.58;88.59;95183.19;5156538;27;1058;-48
2022/08/28 04:09:44;;;;;;;;;;;;;;;15.67;88.36;95182.03;5156244;27;1095;-48
2022/08/28 04:12:10;;;;;;;;;;;;;;;15.71;88.22;95180.63;5156352;27;991;-49
2022/08/28 04:14:37;;;;;;;;;;;;;;;15.75;88.40;95184.63;5156153;27;1099;-48
2022/08/28 04:17:03;;;;;;;;;;;;;;;15.75;88.21;95189.19;5156144;27;1008;-48
2022/08/28 04:19:29;;;;;;;;;;;;;;;15.64;88.40;95192.34;5156046;27;1115;-49
2022/08/28 04:21:55;;;;;;;;;;;;;;;15.70;88.56;95203.19;5156101;27;1071;-49
2022/08/28 04:24:21;;;;;;;;;;;;;;;15.73;88.62;95205.56;5155905;27;1992;-49
2022/08/28 04:26:47;;;;;;;;;;;;;;;15.74;89.15;95204.50;5155999;27;1193;-49
2022/08/28 04:29:13;;;;;;;;;;;;;;;15.75;88.86;95205.38;5155828;27;1020;-49
2022/08/28 04:31:39;;;;;;;;;;;;;;;15.89;88.63;95209.03;5155909;27;1033;-48
2022/08/28 04:34:07;;;;;;;;;;;;;;;16.07;88.72;95206.72;5155697;27;1154;-49
2022/08/28 04:36:34;;;;;;;;;;;;;;;16.16;87.98;95210.94;5155862;27;1063;-49
2022/08/28 04:39:00;;;;;;;;;;;;;;;16.23;88.10;95212.84;5155805;27;1014;-48
2022/08/28 04:41:27;;;;;;;;;;;;;;;16.24;88.28;95214.50;5155793;27;1000;-49
2022/08/28 04:43:55;;;;;;;;;;;;;;;16.30;88.68;95217.28;5151485;27;1913;-48
2022/08/28 04:46:21;;;;;;;;;;;;;;;16.48;88.23;95215.94;5134818;27;1036;-48
2022/08/28 04:48:47;;;;;;;;;;;;;;;16.54;88.04;95213.31;5134937;27;1017;-48
2022/08/28 04:51:13;;;;;;;;;;;;;;;16.76;87.87;95226.75;5134818;27;1095;-48
2022/08/28 04:53:40;;;;;;;;;;;;;;;16.85;87.73;95222.06;5134861;27;1067;-49
2022/08/28 04:56:07;;;;;;;;;;;;;;;17.13;86.35;95217.44;5134685;27;1109;-48
2022/08/28 04:58:33;;;;;;;;;;;;;;;17.41;85.71;95224.63;5134678;27;973;-48
2022/08/28 05:01:04;;;;;;;;;;;;;;;17.49;85.94;95220.91;5134696;27;1061;-48
2022/08/28 05:03:31;;;;;;;;;;;;;;;17.55;86.95;95230.94;5134664;27;1910;-48
2022/08/28 05:05:57;;;;;;;;;;;;;;;17.67;86.33;95229.28;5134667;27;1071;-50
2022/08/28 05:08:25;;;;;;;;;;;;;;;17.73;86.26;95214.94;5134453;27;1328;-49
2022/08/28 05:10:52;;;;;;;;;;;;;;;17.96;84.95;95221.91;5134601;27;957;-49
2022/08/28 05:13:18;;;;;;;;;;;;;;;18.22;82.59;95225.69;5134535;27;1044;-50
2022/08/28 05:15:45;;;;;;;;;;;;;;;18.27;82.76;95220.50;5133927;27;1028;-49
2022/08/28 05:18:13;;;;;;;;;;;;;;;18.31;82.34;95227.16;5134655;27;1007;-49
2022/08/28 05:20:40;;;;;;;;;;;;;;;18.34;82.26;95229.44;5134471;27;965;-49
2022/08/28 05:23:08;;;;;;;;;;;;;;;18.45;82.56;95225.28;5134605;27;1898;-49
2022/08/28 05:28:58;;;;;;;;;;;;;;;18.78;81.16;95228.00;3086764;28;2210;-50
2022/08/28 05:31:26;;;;;;;;;;;;;;;18.81;81.68;95241.13;5091109;28;1188;-50
2022/08/28 05:33:52;;;;;;;;;;;;;;;18.88;81.78;95238.41;5091152;28;1071;-49
2022/08/28 05:36:21;;;;;;;;;;;;;;;18.88;80.80;95233.00;5090958;28;982;-49
2022/08/28 05:38:48;;;;;;;;;;;;;;;18.88;80.86;95235.72;5091109;28;1052;-50
2022/08/28 05:41:19;;;;;;;;;;;;;;;18.97;82.09;95230.88;5090907;28;1017;-49
2022/08/28 05:43:45;;;;;;;;;;;;;;;19.03;83.12;95235.47;5090907;28;1910;-49
2022/08/28 05:46:11;;;;;;;;;;;;;;;19.16;83.12;95231.88;5091055;28;949;-49
2022/08/28 05:48:38;;;;;;;;;;;;;;;19.24;81.38;95227.06;5091052;28;1107;-49
2022/08/28 05:51:08;;;;;;;;;;;;;;;19.48;81.44;95227.41;5090708;28;1959;-49
2022/08/28 05:53:35;;;;;;;;;;;;;;;19.66;80.14;95230.25;5091042;28;965;-49
2022/08/28 05:56:04;;;;;;;;;;;;;;;19.68;80.26;95230.84;5090834;28;1055;-49
2022/08/28 05:58:31;;;;;;;;;;;;;;;19.70;80.80;95230.66;5094284;28;1029;-48
2022/08/28 06:01:03;;;;;;;;;;;;;;;19.66;80.56;95229.41;5113684;28;1016;-48
2022/08/28 06:03:29;;;;;;;;;;;;;;;19.79;80.88;95231.28;5113439;28;1992;-49
2022/08/28 06:05:55;;;;;;;;;;;;;;;19.83;79.89;95230.63;5113222;28;974;-48
2022/08/28 06:08:22;;;;;;;;;;;;;;;19.88;79.44;95235.38;5113607;28;1039;-49
2022/08/28 06:10:49;;;;;;;;;;;;;;;19.96;80.55;95246.00;5095371;28;985;-49
2022/08/28 06:13:15;;;;;;;;;;;;;;;20.10;80.11;95238.59;5113422;28;1021;-49
2022/08/28 06:15:42;;;;;;;;;;;;;;;20.34;77.88;95245.13;5113327;28;1009;-49
2022/08/28 06:18:08;;;;;;;;;;;;;;;20.48;78.57;95243.13;5113310;28;1016;-49
2022/08/28 06:20:42;;;;;;;;;;;;;;;20.56;77.90;95240.13;5113114;28;1063;-50
2022/08/28 06:23:09;;;;;;;;;;;;;;;20.69;75.62;95249.28;5113398;28;2055;-51
2022/08/28 06:25:36;;;;;;;;;;;;;;;20.86;76.14;95251.19;5113112;28;1041;-49
2022/08/28 06:28:02;;;;;;;;;;;;;;;21.01;74.93;95247.31;5116576;28;961;-49
2022/08/28 06:30:28;;;;;;;;;;;;;;;21.24;75.34;95247.47;5116826;28;1258;-48
2022/08/28 06:32:54;;;;;;;;;;;;;;;21.34;74.13;95251.56;5116963;28;946;-49
2022/08/28 06:35:20;;;;;;;;;;;;;;;21.60;72.55;95245.84;5116649;28;1024;-49
2022/08/28 06:37:46;;;;;;;;;;;;;;;21.82;72.19;95248.94;5117140;28;986;-48
2022/08/28 06:40:12;;;;;;;;;;;;;;;22.10;71.52;95249.41;5116813;28;1049;-49
2022/08/28 06:42:38;;;;;;;;;;;;;;;22.31;72.05;95251.66;5117292;28;1040;-48
2022/08/28 06:45:05;;;;;;;;;;;;;;;22.48;69.39;95248.25;5130554;27;1913;-50
2022/08/28 06:47:31;;;;;;;;;;;;;;;22.91;67.73;95253.41;5137241;27;981;-49
2022/08/28 06:49:57;;;;;;;;;;;;;;;23.70;64.97;95250.31;5137494;27;972;-49
2022/08/28 06:52:23;;;;;;;;;;;;;;;24.87;62.24;95259.13;5118913;27;1043;-50
2022/08/28 06:54:49;;;;;;;;;;;;;;;26.95;54.83;95256.81;5137317;27;973;-49
2022/08/28 06:57:15;;;;;;;;;;;;;;;28.77;49.06;95259.13;5136867;27;1032;-50
2022/08/28 06:59:40;;;;;;;;;;;;;;;30.73;45.55;95257.56;5137035;27;1107;-50
2022/08/28 07:02:08;;;;;;;;;;;;;;;32.22;40.66;95259.81;5136730;27;1019;-50
2022/08/28 07:04:34;;;;;;;;;;;;;;;33.24;37.55;95259.50;5137075;27;1910;-50
2022/08/28 07:06:59;;;;;;;;;;;;;;;33.40;37.81;95255.31;5136906;27;1024;-50
2022/08/28 07:09:25;;;;;;;;;;;;;;;33.57;38.45;95263.06;5136964;27;958;-51
2022/08/28 07:11:51;;;;;;;;;;;;;;;32.72;39.89;95258.59;5136777;27;1185;-50
2022/08/28 07:14:17;;;;;;;;;;;;;;;31.52;41.26;95252.81;5118419;27;1197;-49
2022/08/28 07:16:43;;;;;;;;;;;;;;;30.13;45.04;95250.13;5136508;27;1091;-49
2022/08/28 07:19:10;;;;;;;;;;;;;;;28.69;48.68;95255.00;5136987;27;1095;-49
2022/08/28 07:21:40;;;;;;;;;;;;;;;27.70;52.39;95246.66;5136688;27;1043;-49
2022/08/28 07:24:07;;;;;;;;;;;;;;;27.37;53.43;95245.06;5136368;27;1917;-49
2022/08/28 07:26:33;;;;;;;;;;;;;;;26.93;54.36;95242.53;5136354;27;1020;-49
2022/08/28 07:29:01;;;;;;;;;;;;;;;26.78;55.20;95244.03;5138708;27;1229;-49
2022/08/28 07:31:27;;;;;;;;;;;;;;;26.56;57.13;95244.09;5157019;27;1027;-49
2022/08/28 07:33:54;;;;;;;;;;;;;;;26.51;55.08;95241.31;5157155;27;1079;-49
2022/08/28 07:36:24;;;;;;;;;;;;;;;26.60;56.45;95236.22;5156819;27;1067;-49
2022/08/28 07:38:50;;;;;;;;;;;;;;;26.60;54.94;95231.56;5156921;27;1111;-49
2022/08/28 07:41:18;;;;;;;;;;;;;;;26.75;58.33;95235.50;5156825;27;1039;-49
2022/08/28 07:46:29;;;;;;;;;;;;;;;26.60;57.16;95231.56;5136309;27;1048;-49
2022/08/28 07:48:57;;;;;;;;;;;;;;;26.85;55.54;95224.63;5136299;27;898;-49
2022/08/28 07:51:24;;;;;;;;;;;;;;;27.04;54.26;95228.63;5135882;27;1059;-50
2022/08/28 07:53:51;;;;;;;;;;;;;;;26.88;55.64;95222.22;5136006;27;1211;-49
2022/08/28 07:56:17;;;;;;;;;;;;;;;26.83;56.45;95222.16;5135706;27;1012;-49
2022/08/28 07:58:44;;;;;;;;;;;;;;;26.91;57.45;95225.50;5135856;27;1020;-49
2022/08/28 08:01:10;;;;;;;;;;;;;;;26.90;56.16;95221.09;5135807;27;984;-49
2022/08/28 08:03:37;;;;;;;;;;;;;;;26.87;56.24;95222.47;5135945;27;1913;-48
2022/08/28 08:06:03;;;;;;;;;;;;;;;26.86;55.21;95224.38;5135669;27;973;-49
2022/08/28 08:08:32;;;;;;;;;;;;;;;26.68;55.71;95214.63;5135673;27;984;-49
2022/08/28 08:11:03;;;;;;;;;;;;;;;26.74;56.16;95220.16;5135600;27;1012;-49
2022/08/28 08:13:30;;;;;;;;;;;;;;;26.71;55.67;95216.00;5135619;27;980;-50
2022/08/28 08:16:00;;;;;;;;;;;;;;;26.67;56.24;95218.47;5135738;27;1249;-50
2022/08/28 08:18:26;;;;;;;;;;;;;;;26.62;57.40;95215.66;5135315;27;992;-49
2022/08/28 08:20:52;;;;;;;;;;;;;;;26.55;57.62;95208.72;5135634;27;1011;-50
2022/08/28 08:23:18;;;;;;;;;;;;;;;26.44;57.11;95210.53;5135589;27;1910;-49
2022/08/28 08:25:57;;;;;;;;;;;;;;;26.47;56.55;95208.09;5135367;27;1025;-49
2022/08/28 08:28:23;;;;;;;;;;;;;;;26.48;56.97;95209.78;5135371;27;961;-49
2022/08/28 08:30:49;;;;;;;;;;;;;;;26.56;57.29;95211.22;5135144;27;1226;-50
2022/08/28 08:33:15;;;;;;;;;;;;;;;26.49;57.01;95211.41;5135295;27;965;-49
2022/08/28 08:35:42;;;;;;;;;;;;;;;26.55;56.18;95208.72;5135178;27;1075;-50
2022/08/28 08:38:08;;;;;;;;;;;;;;;26.71;56.65;95207.78;5134919;27;1044;-50
2022/08/28 08:40:35;;;;;;;;;;;;;;;26.68;55.02;95205.56;5135083;27;987;-50
2022/08/28 08:43:01;;;;;;;;;;;;;;;26.74;56.25;95207.25;5134816;27;1067;-49
2022/08/28 08:45:29;;;;;;;;;;;;;;;26.77;54.71;95204.00;5152520;27;1906;-50
2022/08/28 08:47:56;;;;;;;;;;;;;;;26.85;54.51;95210.94;5155696;27;1020;-50
2022/08/28 08:50:22;;;;;;;;;;;;;;;26.98;55.32;95202.25;5155043;27;1051;-49
2022/08/28 08:53:06;;;;;;;;;;;;;;;27.00;52.29;95193.75;5155501;27;989;-50
2022/08/28 08:55:34;;;;;;;;;;;;;;;27.00;52.44;95202.00;5155762;27;1039;-49
2022/08/28 08:58:18;;;;;;;;;;;;;;;27.12;55.71;95199.88;5155868;27;1043;-50
2022/08/28 09:00:47;;;;;;;;;;;;;;;27.16;54.85;95197.41;5155545;27;1008;-49
2022/08/28 09:03:17;;;;;;;;;;;;;;;27.23;53.77;95196.09;5155161;27;1990;-49
2022/08/28 09:05:49;;;;;;;;;;;;;;;27.23;55.96;95192.53;5155343;27;837;-50
2022/08/28 09:08:29;;;;;;;;;;;;;;;27.30;55.00;95198.66;5155318;27;986;-50
2022/08/28 09:11:10;;;;;;;;;;;;;;;27.35;55.64;95193.16;5155526;27;969;-50
2022/08/28 09:13:58;;;;;;;;;;;;;;;27.50;53.25;95191.63;5155211;27;1042;-51
2022/08/28 09:16:50;;;;;;;;;;;;;;;27.55;54.61;95192.47;5155128;27;1120;-51
2022/08/28 09:19:18;;;;;;;;;;;;;;;27.69;53.83;95189.22;5150368;27;2028;-49
2022/08/28 09:21:45;;;;;;;;;;;;;;;27.82;54.01;95191.47;5155194;27;1040;-50
2022/08/28 09:24:17;;;;;;;;;;;;;;;27.86;53.37;95184.34;5154847;27;1995;-50
2022/08/28 09:26:49;;;;;;;;;;;;;;;27.92;53.29;95177.78;5155406;27;1035;-50
2022/08/28 09:29:16;;;;;;;;;;;;;;;28.00;54.07;95181.94;5154899;27;1091;-50
2022/08/28 09:31:43;;;;;;;;;;;;;;;28.17;53.73;95179.81;5155222;27;960;-50
2022/08/28 09:34:45;;;;;;;;;;;;;;;28.22;53.42;95176.22;5154859;27;1051;-49
2022/08/28 09:37:23;;;;;;;;;;;;;;;28.26;51.34;95169.09;5050783;28;1207;-49
2022/08/28 09:40:09;;;;;;;;;;;;;;;28.33;53.18;95166.09;5143289;27;1230;-50
2022/08/28 09:45:21;;;;;;;;;;;;;;;28.47;53.75;95167.19;5138438;27;1987;-50
2022/08/28 09:47:54;;;;;;;;;;;;;;;28.54;51.78;95166.97;5134304;28;1008;-50
2022/08/28 09:50:30;;;;;;;;;;;;;;;28.65;52.26;95173.28;5134246;28;1048;-50
2022/08/28 09:53:08;;;;;;;;;;;;;;;28.58;51.65;95163.38;5133886;28;925;-50
2022/08/28 09:55:34;;;;;;;;;;;;;;;28.64;51.83;95160.63;5134134;28;1013;-50
2022/08/28 09:58:00;;;;;;;;;;;;;;;28.70;49.66;95165.84;5134162;28;1014;-50
2022/08/28 10:00:29;;;;;;;;;;;;;;;28.78;50.00;95162.56;5134990;27;1003;-50
2022/08/28 10:02:58;;;;;;;;;;;;;;;28.80;50.92;95156.78;5138027;27;1087;-50
2022/08/28 10:05:33;;;;;;;;;;;;;;;28.75;51.03;95152.09;5138267;27;1918;-50
2022/08/28 10:08:05;;;;;;;;;;;;;;;28.75;51.22;95151.28;5138129;27;1027;-50
2022/08/28 10:10:37;;;;;;;;;;;;;;;28.78;52.12;95148.00;5138572;27;972;-50
2022/08/28 10:13:15;;;;;;;;;;;;;;;28.78;51.12;95146.06;5137990;27;987;-50
2022/08/28 10:15:41;;;;;;;;;;;;;;;28.89;49.17;95146.84;5138113;27;970;-50
2022/08/28 10:18:07;;;;;;;;;;;;;;;29.00;51.17;95144.91;5137634;27;1083;-50
2022/08/28 10:20:33;;;;;;;;;;;;;;;29.08;50.67;95138.84;5137941;27;1054;-50
2022/08/28 10:23:07;;;;;;;;;;;;;;;29.09;50.47;95135.00;5137619;27;1080;-50
2022/08/28 10:25:39;;;;;;;;;;;;;;;29.17;50.31;95136.38;5137709;27;1063;-50
2022/08/28 10:28:08;;;;;;;;;;;;;;;29.20;48.85;95127.56;5137647;27;1031;-50
2022/08/28 10:30:38;;;;;;;;;;;;;;;29.23;48.79;95127.00;5137516;27;1963;-50
2022/08/28 10:33:04;;;;;;;;;;;;;;;29.19;48.34;95129.50;5137555;27;1024;-49
2022/08/28 10:35:36;;;;;;;;;;;;;;;29.20;46.26;95127.56;5137415;27;1072;-50
2022/08/28 10:38:02;;;;;;;;;;;;;;;29.20;43.92;95122.06;5137741;27;1036;-50
2022/08/28 10:40:34;;;;;;;;;;;;;;;29.29;43.86;95127.81;5137296;27;934;-49
2022/08/28 10:43:03;;;;;;;;;;;;;;;29.34;45.31;95128.63;5137439;27;1032;-49
2022/08/28 10:45:31;;;;;;;;;;;;;;;29.32;44.70;95124.50;5154726;27;1977;-50
2022/08/28 10:48:00;;;;;;;;;;;;;;;29.30;45.15;95123.97;5158005;27;1072;-50
2022/08/28 10:50:36;;;;;;;;;;;;;;;29.17;43.54;95114.38;5157969;27;964;-50
2022/08/28 10:53:05;;;;;;;;;;;;;;;29.13;41.09;95122.34;5158244;27;1055;-50
2022/08/28 10:55:33;;;;;;;;;;;;;;;29.26;43.66;95117.38;5157881;27;1108;-50
2022/08/28 10:58:02;;;;;;;;;;;;;;;29.39;43.63;95116.78;5158041;27;1027;-50
2022/08/28 11:00:28;;;;;;;;;;;;;;;29.49;42.47;95118.66;5157662;27;1079;-50
2022/08/28 11:02:57;;;;;;;;;;;;;;;29.49;43.41;95111.22;5157756;27;1115;-50
2022/08/28 11:05:26;;;;;;;;;;;;;;;29.44;41.66;95118.69;5157609;27;1906;-50
2022/08/28 11:07:54;;;;;;;;;;;;;;;29.41;41.34;95114.56;5157775;27;969;-50
2022/08/28 11:10:35;;;;;;;;;;;;;;;29.45;40.51;95114.84;5157376;27;987;-50
2022/08/28 11:13:02;;;;;;;;;;;;;;;29.54;42.70;95108.44;5156812;27;1996;-50
2022/08/28 11:15:31;;;;;;;;;;;;;;;29.58;43.37;95104.03;5157366;27;1084;-50
2022/08/28 11:18:09;;;;;;;;;;;;;;;29.62;42.70;95098.78;5157502;27;1036;-50
2022/08/28 11:20:36;;;;;;;;;;;;;;;29.66;44.18;95099.84;5157387;27;965;-50
2022/08/28 11:23:05;;;;;;;;;;;;;;;29.62;41.96;95101.53;5157438;27;1019;-49
2022/08/28 11:25:42;;;;;;;;;;;;;;;29.62;42.52;95098.78;5156923;27;1906;-50
2022/08/28 11:28:24;;;;;;;;;;;;;;;29.67;43.00;95101.50;5157435;27;1028;-50
2022/08/28 11:31:05;;;;;;;;;;;;;;;29.70;43.74;95100.94;5156856;27;1257;-50
2022/08/28 11:33:48;;;;;;;;;;;;;;;29.70;43.17;95098.19;5157241;27;1003;-50
2022/08/28 11:36:20;;;;;;;;;;;;;;;29.69;41.36;95095.69;5156882;27;980;-50
2022/08/28 11:38:56;;;;;;;;;;;;;;;29.65;39.07;95097.38;5157059;27;1845;-50
2022/08/28 11:41:27;;;;;;;;;;;;;;;29.72;40.11;95087.69;5156721;27;1115;-50
2022/08/28 11:44:13;;;;;;;;;;;;;;;29.70;38.76;95092.66;5152852;27;1901;-50
2022/08/28 11:46:44;;;;;;;;;;;;;;;29.73;39.87;95083.88;5118632;27;1302;-50
2022/08/28 11:49:22;;;;;;;;;;;;;;;29.72;39.42;95079.44;5136260;27;1035;-50
2022/08/28 11:51:48;;;;;;;;;;;;;;;29.70;40.61;95084.41;5136108;27;968;-50
2022/08/28 11:54:33;;;;;;;;;;;;;;;29.68;40.47;95081.09;5136052;27;957;-50
2022/08/28 11:57:05;;;;;;;;;;;;;;;29.78;40.25;95072.84;5135824;27;999;-50
2022/08/28 11:59:37;;;;;;;;;;;;;;;29.76;39.36;95087.97;5136167;27;1039;-50
2022/08/28 12:02:22;;;;;;;;;;;;;;;29.71;39.57;95083.31;5135838;27;1052;-50
2022/08/28 12:04:48;;;;;;;;;;;;;;;29.81;38.42;95073.38;5135689;27;1909;-50
2022/08/28 12:07:16;;;;;;;;;;;;;;;29.76;38.95;95077.78;5135679;27;1075;-51
2022/08/28 12:09:42;;;;;;;;;;;;;;;29.71;38.82;95075.03;5135697;27;1028;-51
2022/08/28 12:12:08;;;;;;;;;;;;;;;29.72;38.45;95070.34;5135652;27;985;-50
2022/08/28 12:14:37;;;;;;;;;;;;;;;29.63;37.85;95066.53;5135752;27;991;-50
2022/08/28 12:17:15;;;;;;;;;;;;;;;29.56;35.92;95072.38;5135135;27;1087;-50
2022/08/28 12:20:00;;;;;;;;;;;;;;;29.55;34.82;95068.78;5135519;27;1033;-50
2022/08/28 12:22:39;;;;;;;;;;;;;;;29.56;35.15;95064.09;5135579;27;961;-50
2022/08/28 12:25:05;;;;;;;;;;;;;;;29.56;34.88;95061.34;5134378;27;1910;-50
2022/08/28 12:27:35;;;;;;;;;;;;;;;29.58;33.99;95059.13;5135512;27;991;-50
2022/08/28 12:30:01;;;;;;;;;;;;;;;29.58;34.42;95054.44;5135243;27;1127;-50
2022/08/28 12:32:30;;;;;;;;;;;;;;;29.58;34.54;95048.13;5135108;27;1059;-50
2022/08/28 12:34:56;;;;;;;;;;;;;;;29.66;33.52;95044.75;5135448;27;964;-50
2022/08/28 12:37:24;;;;;;;;;;;;;;;29.78;33.83;95050.78;5135108;27;977;-50
2022/08/28 12:39:50;;;;;;;;;;;;;;;29.81;34.90;95041.13;5135313;27;1200;-50
2022/08/28 12:42:18;;;;;;;;;;;;;;;29.84;35.30;95046.06;5134963;27;1023;-50
2022/08/28 12:44:45;;;;;;;;;;;;;;;29.85;36.07;95046.88;5146078;27;1905;-50
2022/08/28 12:47:16;;;;;;;;;;;;;;;29.83;34.43;95043.59;5155408;27;969;-50
2022/08/28 12:49:42;;;;;;;;;;;;;;;29.81;33.76;95056.84;5155659;27;1012;-50
2022/08/28 12:52:08;;;;;;;;;;;;;;;29.77;34.46;95042.81;5155576;27;1107;-51
2022/08/28 12:54:34;;;;;;;;;;;;;;;29.82;35.15;95039.19;5155755;27;1068;-50
2022/08/28 12:57:03;;;;;;;;;;;;;;;29.84;35.35;95035.06;5155519;27;1044;-51
2022/08/28 12:59:32;;;;;;;;;;;;;;;29.87;35.26;95037.22;5155532;27;1016;-51
2022/08/28 13:02:21;;;;;;;;;;;;;;;29.84;34.64;95037.81;5155253;27;988;-50
2022/08/28 13:04:53;;;;;;;;;;;;;;;29.79;35.50;95043.34;5142356;27;2016;-51
2022/08/28 13:07:39;;;;;;;;;;;;;;;29.64;33.11;95037.91;5155163;27;1035;-51
2022/08/28 13:10:25;;;;;;;;;;;;;;;29.80;33.07;95046.91;5155232;27;1036;-50
2022/08/28 13:12:54;;;;;;;;;;;;;;;29.83;31.65;95038.09;5137630;27;1280;-51
2022/08/28 13:15:39;;;;;;;;;;;;;;;29.81;32.98;95040.31;5155339;27;1031;-51
2022/08/28 13:18:07;;;;;;;;;;;;;;;29.73;34.87;95044.50;5155048;27;1051;-51
2022/08/28 13:20:35;;;;;;;;;;;;;;;29.66;36.30;95032.91;5155153;27;1076;-51
2022/08/28 13:23:01;;;;;;;;;;;;;;;29.54;36.92;95036.84;5154965;27;1036;-51